YDNR weather

Dunmore Manila Airport
New South Wales, Australia

Public forecast

Using degrees Celsius for public forecast. Weather courtesy of forecast.io.

METAR (pilot weather report)

Closest report is Tamworth Airport, 25.6 nm (47.4 km) S. Retrieved 2019/04/23 23:30 UTC (13 minutes ago):

YSTW 232330Z AUTO 09005KT 9999 // NCD 22/09 Q1025 RF00.0/000.0

TAF (pilot weather forecast)

Closest forecast is Tamworth Airport, 25.6 nm (47.4 km) S. Retrieved 2019/04/23 18:36 UTC (5 hours ago):

TAF YSTW 231658Z 2318/2412 12008KT CAVOK